^^
Station Historical Data
Daily Summary for May 3, 2017 Units:  Metric    English   Both
« Previous Day
Next Day »
Daily Weekly Monthly Yearly Custom
  High: Low: Average:
Temperature: 28.7 °C 17.3 °C 21.7 °C
Dew Point: 8.8 °C 5.8 °C 6.7 °C
Humidity: 50% 24% 39%
Wind Speed: 13km/h 0km/h 1.4km/h
Wind Gust: 24.1km/h - -
Wind- - NE
Pressure: 1016.1 hPa 1012.4 hPa -
Precipitation: 0 mm    
Historical Graphs
 
 
Tabular Data for May 3, 2017
Time Temperature Dew Point Pressure Wind Wind Speed Wind Gust Humidity Rainfall Rate (Hourly) solar Conditions
00:03 23.8 °C 7 °C 1015.1 hPa North 7.9 km/h 11.3 km/h 34% 0 mm 0.0 W/m2
00:08 23.7 °C 6.9 °C 1015.1 hPa North 1.4 km/h 9.7 km/h 34% 0 mm 0.0 W/m2
00:18 23.5 °C 6.7 °C 1015.1 hPa North 3.2 km/h 12.9 km/h 34% 0 mm 0.0 W/m2
00:23 23.4 °C 6.6 °C 1015.1 hPa North 1.4 km/h 9.7 km/h 34% 0 mm 0.0 W/m2
00:33 23.2 °C 6.9 °C 1014.8 hPa Calm   9.7 km/h 35% 0 mm 0.0 W/m2
00:38 23 °C 6.7 °C 1014.8 hPa North 9.7 km/h 12.9 km/h 35% 0 mm 0.0 W/m2
00:43 22.9 °C 7 °C 1014.8 hPa North 7.9 km/h 11.3 km/h 36% 0 mm 0.0 W/m2
00:53 22.8 °C 6.9 °C 1014.8 hPa North 13 km/h 13 km/h 36% 0 mm 0.0 W/m2
00:58 22.7 °C 6.9 °C 1014.8 hPa North 1.4 km/h 12.9 km/h 36% 0 mm 0.0 W/m2
01:03 22.6 °C 6.8 °C 1015.1 hPa North 3.2 km/h 12.9 km/h 36% 0 mm 0.0 W/m2
01:13 22.4 °C 7 °C 1015.1 hPa Calm   6.4 km/h 37% 0 mm 0.0 W/m2
01:18 22.3 °C 6.9 °C 1015.1 hPa Calm     37% 0 mm 0.0 W/m2
01:24 22.2 °C 6.8 °C 1015.1 hPa Calm     37% 0 mm 0.0 W/m2
01:29 21.9 °C 6.5 °C 1015.1 hPa Calm     37% 0 mm 0.0 W/m2
01:34 21.7 °C 6.8 °C 1015.1 hPa Calm     38% 0 mm 0.0 W/m2
01:40 21.4 °C 6.9 °C 1015.1 hPa Calm     39% 0 mm 0.0 W/m2
01:45 21.1 °C 6.6 °C 1015.1 hPa Calm     39% 0 mm 0.0 W/m2
01:50 20.9 °C 6.4 °C 1015.1 hPa Calm     39% 0 mm 0.0 W/m2
01:55 20.8 °C 6.7 °C 1015.1 hPa Calm     40% 0 mm 0.0 W/m2
02:00 20.6 °C 6.5 °C 1015.1 hPa Calm     40% 0 mm 0.0 W/m2
02:05 20.5 °C 6.8 °C 1015.1 hPa Calm     41% 0 mm 0.0 W/m2
02:10 20.4 °C 6.7 °C 1015.1 hPa Calm     41% 0 mm 0.0 W/m2
02:16 20.3 °C 6.6 °C 1014.8 hPa Calm     41% 0 mm 0.0 W/m2
02:21 20.2 °C 6.9 °C 1014.8 hPa Calm     42% 0 mm 0.0 W/m2
02:26 20.2 °C 6.5 °C 1014.8 hPa Calm     41% 0 mm 0.0 W/m2
02:31 20.1 °C 6.4 °C 1014.8 hPa Calm     41% 0 mm 0.0 W/m2
02:36 19.9 °C 6.6 °C 1014.8 hPa Calm     42% 0 mm 0.0 W/m2
02:41 19.7 °C 6.8 °C 1014.8 hPa Calm     43% 0 mm 0.0 W/m2
02:47 19.6 °C 6.7 °C 1014.8 hPa Calm     43% 0 mm 0.0 W/m2
02:52 19.6 °C 6.7 °C 1014.8 hPa Calm     43% 0 mm 0.0 W/m2
02:57 19.6 °C 6.7 °C 1014.8 hPa Calm     43% 0 mm 0.0 W/m2
03:03 19.6 °C 6.7 °C 1014.8 hPa Calm     43% 0 mm 0.0 W/m2
03:08 19.5 °C 6.6 °C 1014.8 hPa Calm     43% 0 mm 0.0 W/m2
03:13 19.4 °C 6.8 °C 1014.8 hPa Calm     44% 0 mm 0.0 W/m2
03:18 19.3 °C 6.7 °C 1014.8 hPa Calm     44% 0 mm 0.0 W/m2
03:23 19.1 °C 6.6 °C 1014.8 hPa Calm     44% 0 mm 0.0 W/m2
03:28 18.8 °C 6.3 °C 1014.8 hPa Calm     44% 0 mm 0.0 W/m2
03:33 18.6 °C 6.4 °C 1014.8 hPa Calm     45% 0 mm 0.0 W/m2
03:39 18.4 °C 6.3 °C 1014.8 hPa Calm     45% 0 mm 0.0 W/m2
03:49 18.2 °C 6.4 °C 1014.8 hPa Calm     46% 0 mm 0.0 W/m2
03:55 18.1 °C 6.3 °C 1014.8 hPa Calm     46% 0 mm 0.0 W/m2
04:00 17.9 °C 6.4 °C 1015.1 hPa Calm     47% 0 mm 0.0 W/m2
04:05 17.8 °C 6.3 °C 1014.8 hPa Calm     47% 0 mm 0.0 W/m2
04:10 17.7 °C 6.2 °C 1014.8 hPa Calm     47% 0 mm 0.0 W/m2
04:16 17.5 °C 6.1 °C 1015.1 hPa Calm     47% 0 mm 0.0 W/m2
04:21 17.4 °C 6.3 °C 1014.8 hPa Calm     48% 0 mm 0.0 W/m2
04:27 17.5 °C 6.4 °C 1015.1 hPa Calm     48% 0 mm 0.0 W/m2
04:32 17.5 °C 6.1 °C 1015.1 hPa Calm     47% 0 mm 0.0 W/m2
04:42 17.4 °C 6.3 °C 1015.1 hPa Calm     48% 0 mm 0.0 W/m2
04:47 17.3 °C 6.2 °C 1015.1 hPa Calm     48% 0 mm 0.0 W/m2
04:58 17.3 °C 6.2 °C 1015.1 hPa Calm     48% 0 mm 0.0 W/m2
05:03 17.3 °C 6.8 °C 1015.1 hPa Calm   1.6 km/h 50% 0 mm 0.0 W/m2
05:29 18.1 °C 6.6 °C 1015.1 hPa Calm     47% 0 mm 0.0 W/m2
05:34 18.1 °C 6.9 °C 1015.5 hPa Calm     48% 0 mm 0.0 W/m2
05:39 18.2 °C 7 °C 1015.5 hPa Calm     48% 0 mm 0.0 W/m2
05:44 18.3 °C 7.1 °C 1015.5 hPa Calm   8 km/h 48% 0 mm 0.0 W/m2
05:50 18.7 °C 7.5 °C 1015.5 hPa North 3.2 km/h 11.3 km/h 48% 0 mm 0.0 W/m2
05:54 19 °C 7.4 °C 1015.5 hPa North 1.4 km/h 11.3 km/h 47% 0 mm 0.0 W/m2
06:03 19.2 °C 7.3 °C 1015.5 hPa Calm   12.9 km/h 46% 0 mm 0.0 W/m2
06:16 19.5 °C 7.2 °C 1015.5 hPa Calm   11.3 km/h 45% 0 mm 0.0 W/m2
06:30 19.6 °C 7.3 °C 1015.5 hPa Calm   11.3 km/h 45% 0 mm 9.0 W/m2
06:45 19.4 °C 7.5 °C 1015.8 hPa North 7.9 km/h 12.9 km/h 46% 0 mm 14.0 W/m2
07:00 19.6 °C 7.3 °C 1015.8 hPa North 3.2 km/h 9.7 km/h 45% 0 mm 58.0 W/m2
07:10 20.1 °C 7.8 °C 1015.8 hPa Calm     45% 0 mm 109.0 W/m2
07:21 20.5 °C 7.8 °C 1016.1 hPa North 7.9 km/h 11.3 km/h 44% 0 mm 149.0 W/m2
07:26 20.8 °C 8.1 °C 1016.1 hPa North 1.4 km/h 12.9 km/h 44% 0 mm 169.0 W/m2
07:36 21.3 °C 7.9 °C 1016.1 hPa North 9.7 km/h 12.9 km/h 42% 0 mm 211.0 W/m2
07:51 22.3 °C 8.4 °C 1016.1 hPa North 1.4 km/h 11.3 km/h 41% 0 mm 262.0 W/m2
08:01 22.8 °C 8.5 °C 1016.1 hPa North 6.4 km/h 8 km/h 40% 0 mm 292.0 W/m2
08:16 24.1 °C 8.5 °C 1016.1 hPa North 9.7 km/h 17.7 km/h 37% 0 mm 339.0 W/m2
08:37 24.7 °C 8.6 °C 1016.1 hPa North 6.4 km/h 20.9 km/h 36% 0 mm 383.0 W/m2
08:51 25.2 °C 8.6 °C 1016.1 hPa North 11.1 km/h 22.5 km/h 35% 0 mm 424.0 W/m2
09:01 25.4 °C 8.8 °C 1016.1 hPa North 11.1 km/h 20.9 km/h 35% 0 mm 454.0 W/m2
09:07 25.8 °C 8.7 °C 1016.1 hPa North 9.7 km/h 16.1 km/h 34% 0 mm 475.0 W/m2
09:22 26.3 °C 8.7 °C 1016.1 hPa North 9.7 km/h 24.1 km/h 33% 0 mm 513.0 W/m2
17:17 28.7 °C 6.7 °C 1012.4 hPa Calm     25% 0 mm 0.0 W/m2
17:24 28.6 °C 6.1 °C 1012.4 hPa Calm     24% 0 mm 0.0 W/m2
17:29 28.4 °C 5.9 °C 1012.4 hPa Calm     24% 0 mm 0.0 W/m2
17:40 28.2 °C 6.3 °C 1012.8 hPa Calm     25% 0 mm 0.0 W/m2
17:45 28.1 °C 6.2 °C 1012.8 hPa Calm     25% 0 mm 0.0 W/m2
17:55 27.7 °C 6.5 °C 1012.8 hPa Calm     26% 0 mm 0.0 W/m2
18:01 27.6 °C 6.9 °C 1012.8 hPa Calm     27% 0 mm 0.0 W/m2
18:22 26.9 °C 6.8 °C 1012.8 hPa Calm     28% 0 mm 0.0 W/m2
18:43 25.7 °C 5.8 °C 1012.8 hPa Calm     28% 0 mm 0.0 W/m2
19:05 24.6 °C 5.9 °C 1013.1 hPa Calm     30% 0 mm 0.0 W/m2
19:26 24 °C 5.8 °C 1013.1 hPa Calm     31% 0 mm 0.0 W/m2
19:31 23.9 °C 6.2 °C 1013.1 hPa Calm     32% 0 mm 0.0 W/m2
19:37 23.8 °C 6.1 °C 1013.1 hPa Calm     32% 0 mm 0.0 W/m2
19:46 23.7 °C 6 °C 1013.4 hPa Calm     32% 0 mm 0.0 W/m2
20:13 23.3 °C 6.1 °C 1013.4 hPa Calm     33% 0 mm 0.0 W/m2
20:50 22.5 °C 5.9 °C 1013.4 hPa Calm     34% 0 mm 0.0 W/m2
20:54 22.7 °C 6 °C 1013.4 hPa Calm     34% 0 mm 0.0 W/m2
21:04 22.9 °C 6.2 °C 1013.4 hPa Calm     34% 0 mm 0.0 W/m2
21:14 23.1 °C 6.4 °C 1013.4 hPa Calm     34% 0 mm 0.0 W/m2
21:24 23.2 °C 6.5 °C 1013.4 hPa Calm     34% 0 mm 0.0 W/m2
21:29 23.2 °C 6.5 °C 1013.4 hPa Calm     34% 0 mm 0.0 W/m2
21:34 23.2 °C 6 °C 1013.4 hPa Calm     33% 0 mm 0.0 W/m2
21:40 23 °C 6.3 °C 1013.4 hPa Calm     34% 0 mm 0.0 W/m2
21:50 22.8 °C 6.1 °C 1013.4 hPa Calm     34% 0 mm 0.0 W/m2
21:55 22.7 °C 6 °C 1013.4 hPa Calm     34% 0 mm 0.0 W/m2
22:06 22.6 °C 6.4 °C 1013.4 hPa Calm     35% 0 mm 0.0 W/m2
22:16 22.7 °C 6.4 °C 1013.4 hPa Calm     35% 0 mm 0.0 W/m2
22:21 22.8 °C 6.5 °C 1013.4 hPa Calm     35% 0 mm 0.0 W/m2
22:26 22.8 °C 6.5 °C 1013.4 hPa Calm     35% 0 mm 0.0 W/m2
22:32 22.8 °C 6.5 °C 1013.4 hPa Calm     35% 0 mm 0.0 W/m2
22:52 23 °C 6.7 °C 1013.1 hPa Calm     35% 0 mm 0.0 W/m2
22:57 22.9 °C 6.6 °C 1013.1 hPa Calm   9.7 km/h 35% 0 mm 0.0 W/m2
23:08 22.8 °C 6.5 °C 1013.1 hPa Calm   11.3 km/h 35% 0 mm 0.0 W/m2
23:13 22.8 °C 6.5 °C 1013.1 hPa Calm   1.6 km/h 35% 0 mm 0.0 W/m2
23:23 23 °C 6.3 °C 1013.1 hPa NNW 1.4 km/h 6.4 km/h 34% 0 mm 0.0 W/m2
23:28 23.1 °C 6.4 °C 1012.8 hPa NNW 11.1 km/h 12.9 km/h 34% 0 mm 0.0 W/m2
23:38 23.1 °C 6.4 °C 1013.1 hPa Calm   14.5 km/h 34% 0 mm 0.0 W/m2
23:48 23.1 °C 6.4 °C 1012.8 hPa Calm     34% 0 mm 0.0 W/m2
23:53 23.1 °C 6.4 °C 1013.1 hPa Calm   3.2 km/h 34% 0 mm 0.0 W/m2
Canyon Roadhouse, Fishriver Canyon, Namibia
Compliments of Weather Underground - 2.25 mb